Time;durP1;ratioP1;P1;durP2;ratioP2;P2;SDS_P1;SDS_P2;PMS_P1;PMS_P2;Temp;Humidity;BMP_temperature;BMP_pressure;BME280_temperature;BME280_humidity;BME280_pressure;Samples;Min_cycle;Max_cycle;Signal;HPM_P1;HPM_P2
2023/08/06 00:01:03;;;;;;;8.93;6.05;;;;;;;;;;5027599;28;20501;-72
2023/08/06 00:03:29;;;;;;;7.88;5.85;;;;;;;;;;5029581;28;20109;-73
2023/08/06 00:05:55;;;;;;;9.02;6.32;;;;;;;;;;5026569;28;20057;-72
2023/08/06 00:08:21;;;;;;;7.18;5.63;;;;;;;;;;5027469;28;20414;-73
2023/08/06 00:10:48;;;;;;;9.65;5.63;;;;;;;;;;5026891;28;20041;-72
2023/08/06 00:13:14;;;;;;;8.32;6.43;;;;;;;;;;5026579;28;20026;-72
2023/08/06 00:15:40;;;;;;;9.55;7.05;;;;;;;;;;5028015;28;20064;-72
2023/08/06 00:18:06;;;;;;;6.95;6.18;;;;;;;;;;5027299;28;20068;-72
2023/08/06 00:20:32;;;;;;;9.25;6.68;;;;;;;;;;5024880;28;20513;-72
2023/08/06 00:22:58;;;;;;;7.93;6.38;;;;;;;;;;5022166;28;20048;-72
2023/08/06 00:25:24;;;;;;;8.45;7.43;;;;;;;;;;5023908;28;20044;-72
2023/08/06 00:27:50;;;;;;;9.50;6.82;;;;;;;;;;5027831;28;20025;-72
2023/08/06 00:30:16;;;;;;;10.73;7.25;;;;;;;;;;5025024;28;20045;-72
2023/08/06 00:32:43;;;;;;;9.07;6.88;;;;;;;;;;5042147;28;20080;-72
2023/08/06 00:35:09;;;;;;;9.75;7.07;;;;;;;;;;5027489;28;20033;-72
2023/08/06 00:37:35;;;;;;;10.85;7.03;;;;;;;;;;5023036;28;20795;-72
2023/08/06 00:40:01;;;;;;;7.80;5.88;;;;;;;;;;5031667;28;20034;-72
2023/08/06 00:42:27;;;;;;;10.32;7.72;;;;;;;;;;5028294;28;20075;-72
2023/08/06 00:44:53;;;;;;;13.30;7.63;;;;;;;;;;5024944;28;20116;-72
2023/08/06 00:47:19;;;;;;;11.13;7.13;;;;;;;;;;5026019;28;20167;-72
2023/08/06 00:49:45;;;;;;;12.45;9.15;;;;;;;;;;5026646;28;20029;-72
2023/08/06 00:52:13;;;;;;;10.00;7.65;;;;;;;;;;5028265;28;20120;-72
2023/08/06 00:54:39;;;;;;;8.95;7.82;;;;;;;;;;5024898;28;20037;-72
2023/08/06 00:57:05;;;;;;;8.80;7.43;;;;;;;;;;5026628;28;20082;-72
2023/08/06 00:59:31;;;;;;;11.75;8.27;;;;;;;;;;5026570;28;20048;-72
2023/08/06 01:01:57;;;;;;;12.00;8.60;;;;;;;;;;5022983;28;20483;-72
2023/08/06 01:04:24;;;;;;;8.95;8.05;;;;;;;;;;5025341;28;20364;-72
2023/08/06 01:06:56;;;;;;;10.60;8.50;;;;;;;;;;5026086;28;20386;-73
2023/08/06 01:09:45;;;;;;;10.38;8.40;;;;;;;;;;5026545;28;20057;-73
2023/08/06 01:12:21;;;;;;;14.70;9.00;;;;;;;;;;5018530;28;20037;-73
2023/08/06 01:15:05;;;;;;;9.55;7.38;;;;;;;;;;5022957;28;20037;-72
2023/08/06 01:17:31;;;;;;;12.48;8.85;;;;;;;;;;5023382;28;20104;-72
2023/08/06 01:19:57;;;;;;;8.75;7.82;;;;;;;;;;5027464;28;20738;-72
2023/08/06 01:22:23;;;;;;;11.38;8.52;;;;;;;;;;5020362;28;20068;-72
2023/08/06 01:24:50;;;;;;;9.57;8.60;;;;;;;;;;5029559;28;20474;-72
2023/08/06 01:27:28;;;;;;;12.50;9.40;;;;;;;;;;5024437;28;20034;-72
2023/08/06 01:30:04;;;;;;;10.75;9.07;;;;;;;;;;5026478;28;20036;-72
2023/08/06 01:32:32;;;;;;;10.05;9.10;;;;;;;;;;5021251;28;20123;-72
2023/08/06 01:35:01;;;;;;;10.05;8.85;;;;;;;;;;5023904;28;20034;-72
2023/08/06 01:37:27;;;;;;;12.68;9.20;;;;;;;;;;5024650;28;20042;-72
2023/08/06 01:39:53;;;;;;;11.73;9.25;;;;;;;;;;5025829;28;20072;-72
2023/08/06 01:42:19;;;;;;;9.73;8.43;;;;;;;;;;5026107;28;20116;-72
2023/08/06 01:44:45;;;;;;;11.18;9.85;;;;;;;;;;5026676;28;20029;-72
2023/08/06 01:47:11;;;;;;;14.27;9.65;;;;;;;;;;5025579;28;20678;-72
2023/08/06 01:49:37;;;;;;;11.23;10.07;;;;;;;;;;5024874;28;20025;-71
2023/08/06 01:52:03;;;;;;;10.35;9.02;;;;;;;;;;5026009;28;20041;-72
2023/08/06 01:54:29;;;;;;;9.85;8.65;;;;;;;;;;5027260;28;20104;-72
2023/08/06 01:56:55;;;;;;;12.23;9.13;;;;;;;;;;5032536;28;20021;-72
2023/08/06 01:59:21;;;;;;;12.60;9.10;;;;;;;;;;5025341;28;20064;-72
2023/08/06 02:01:47;;;;;;;11.48;9.85;;;;;;;;;;5025911;28;20041;-72
2023/08/06 02:04:13;;;;;;;10.48;9.13;;;;;;;;;;5026949;28;20041;-72
2023/08/06 02:06:39;;;;;;;13.30;9.60;;;;;;;;;;5023917;28;20037;-72
2023/08/06 02:09:05;;;;;;;11.18;9.68;;;;;;;;;;5026679;28;20095;-73
2023/08/06 02:11:31;;;;;;;9.48;8.57;;;;;;;;;;5023496;28;20499;-72
2023/08/06 02:13:57;;;;;;;13.52;10.20;;;;;;;;;;5027297;28;20053;-72
2023/08/06 02:16:23;;;;;;;11.73;9.98;;;;;;;;;;5021083;28;20041;-72
2023/08/06 02:18:49;;;;;;;14.27;10.18;;;;;;;;;;5028365;28;20051;-72
2023/08/06 02:21:15;;;;;;;10.57;9.57;;;;;;;;;;5025709;28;20622;-72
2023/08/06 02:23:41;;;;;;;13.43;10.02;;;;;;;;;;5025287;28;20057;-72
2023/08/06 02:26:07;;;;;;;13.50;10.57;;;;;;;;;;5025227;28;20044;-72
2023/08/06 02:28:33;;;;;;;12.88;9.32;;;;;;;;;;5026461;28;20407;-72
2023/08/06 02:31:00;;;;;;;13.30;10.73;;;;;;;;;;5026604;28;20056;-72
2023/08/06 02:33:26;;;;;;;12.60;9.75;;;;;;;;;;5023327;28;20077;-71
2023/08/06 02:35:59;;;;;;;13.48;11.60;;;;;;;;;;5026041;28;20083;-71
2023/08/06 02:38:25;;;;;;;12.70;10.57;;;;;;;;;;5025895;28;20551;-71
2023/08/06 02:40:51;;;;;;;11.85;10.43;;;;;;;;;;5024410;28;20359;-72
2023/08/06 02:43:17;;;;;;;13.73;11.18;;;;;;;;;;5025220;28;20050;-72
2023/08/06 02:45:43;;;;;;;17.65;11.68;;;;;;;;;;5024648;28;20441;-72
2023/08/06 02:48:10;;;;;;;13.25;11.52;;;;;;;;;;5024691;28;20113;-72
2023/08/06 02:50:40;;;;;;;11.75;10.60;;;;;;;;;;5021569;28;20120;-71
2023/08/06 02:53:06;;;;;;;13.50;11.15;;;;;;;;;;5023639;28;20029;-71
2023/08/06 02:55:33;;;;;;;14.85;11.18;;;;;;;;;;5023274;28;20051;-72
2023/08/06 02:58:00;;;;;;;18.90;9.65;;;;;;;;;;5023459;28;20678;-72
2023/08/06 03:00:26;;;;;;;11.77;10.52;;;;;;;;;;5027810;28;20037;-71
2023/08/06 03:02:52;;;;;;;11.82;10.63;;;;;;;;;;5024803;28;20113;-72
2023/08/06 03:05:18;;;;;;;12.63;10.63;;;;;;;;;;5029477;28;20033;-71
2023/08/06 03:07:44;;;;;;;16.98;11.18;;;;;;;;;;5029128;28;22133;-72
2023/08/06 03:10:10;;;;;;;13.77;10.68;;;;;;;;;;5028034;28;20040;-72
2023/08/06 03:12:36;;;;;;;12.57;10.90;;;;;;;;;;5024849;28;20810;-72
2023/08/06 03:15:02;;;;;;;12.98;9.85;;;;;;;;;;5026057;28;20123;-72
2023/08/06 03:17:28;;;;;;;11.65;9.98;;;;;;;;;;5021513;28;20156;-72
2023/08/06 03:19:54;;;;;;;15.60;10.73;;;;;;;;;;5042447;28;20128;-72
2023/08/06 03:22:20;;;;;;;15.90;10.85;;;;;;;;;;5025886;28;20045;-72
2023/08/06 03:24:46;;;;;;;13.05;11.15;;;;;;;;;;5027866;28;20398;-72
2023/08/06 03:27:12;;;;;;;12.68;10.68;;;;;;;;;;5029178;28;20068;-71
2023/08/06 03:29:38;;;;;;;12.05;10.35;;;;;;;;;;5029091;28;20130;-72
2023/08/06 03:32:04;;;;;;;16.48;10.57;;;;;;;;;;5028442;28;20521;-72
2023/08/06 03:34:30;;;;;;;12.70;10.52;;;;;;;;;;5027152;28;20173;-72
2023/08/06 03:36:56;;;;;;;12.25;10.80;;;;;;;;;;5030295;28;20026;-72
2023/08/06 03:39:22;;;;;;;14.30;11.65;;;;;;;;;;5028359;28;20087;-72
2023/08/06 03:41:48;;;;;;;13.45;11.40;;;;;;;;;;5028091;28;20490;-72
2023/08/06 03:44:14;;;;;;;15.40;10.55;;;;;;;;;;5025967;28;20044;-72
2023/08/06 03:46:40;;;;;;;13.18;10.75;;;;;;;;;;5023591;28;20030;-72
2023/08/06 03:49:06;;;;;;;13.95;11.70;;;;;;;;;;5027644;28;20033;-71
2023/08/06 03:51:32;;;;;;;14.38;11.48;;;;;;;;;;5023408;28;20036;-72
2023/08/06 03:53:58;;;;;;;12.68;10.13;;;;;;;;;;5026705;28;20318;-72
2023/08/06 03:56:24;;;;;;;12.63;10.35;;;;;;;;;;5025825;28;20029;-72
2023/08/06 03:58:50;;;;;;;14.02;10.85;;;;;;;;;;5025654;28;20044;-72
2023/08/06 04:01:16;;;;;;;16.70;11.38;;;;;;;;;;5025723;28;20041;-72
2023/08/06 04:03:42;;;;;;;13.55;11.18;;;;;;;;;;5026467;28;20041;-72
2023/08/06 04:06:08;;;;;;;13.55;11.02;;;;;;;;;;5040464;28;20038;-72
2023/08/06 04:08:34;;;;;;;15.60;11.20;;;;;;;;;;5025607;28;20033;-72
2023/08/06 04:11:00;;;;;;;15.60;11.57;;;;;;;;;;5023966;28;20061;-72
2023/08/06 04:13:26;;;;;;;12.85;10.63;;;;;;;;;;5026809;28;20138;-72
2023/08/06 04:15:53;;;;;;;14.85;11.57;;;;;;;;;;5020174;28;20499;-72
2023/08/06 04:18:19;;;;;;;16.95;10.82;;;;;;;;;;5029071;28;20108;-72
2023/08/06 04:20:46;;;;;;;18.23;11.02;;;;;;;;;;5022808;28;20041;-72
2023/08/06 04:23:12;;;;;;;13.60;12.07;;;;;;;;;;5027123;28;20036;-72
2023/08/06 04:25:38;;;;;;;16.80;11.35;;;;;;;;;;5021514;28;20038;-73
2023/08/06 04:28:04;;;;;;;12.32;10.50;;;;;;;;;;5024794;28;20033;-73
2023/08/06 04:30:30;;;;;;;13.90;10.77;;;;;;;;;;5025774;28;20495;-73
2023/08/06 04:32:59;;;;;;;13.25;11.48;;;;;;;;;;5022044;28;20049;-72
2023/08/06 04:35:25;;;;;;;19.10;11.32;;;;;;;;;;5020830;28;20034;-73
2023/08/06 04:37:51;;;;;;;14.88;11.57;;;;;;;;;;5009488;28;20037;-72
2023/08/06 04:40:17;;;;;;;16.77;11.57;;;;;;;;;;5025139;28;22043;-72
2023/08/06 04:42:43;;;;;;;13.15;11.75;;;;;;;;;;5023658;28;20064;-74
2023/08/06 04:45:10;;;;;;;12.55;11.25;;;;;;;;;;5024723;28;20678;-71
2023/08/06 04:47:36;;;;;;;12.63;11.32;;;;;;;;;;5025998;28;20379;-72
2023/08/06 04:50:02;;;;;;;15.57;12.02;;;;;;;;;;5023327;28;20052;-72
2023/08/06 04:52:28;;;;;;;13.13;10.88;;;;;;;;;;5025397;28;20506;-73
2023/08/06 04:54:54;;;;;;;12.30;11.00;;;;;;;;;;5022979;28;20049;-73
2023/08/06 04:57:20;;;;;;;12.23;10.93;;;;;;;;;;5024368;28;20364;-73
2023/08/06 04:59:46;;;;;;;14.43;11.38;;;;;;;;;;5020589;28;20033;-73
2023/08/06 05:02:13;;;;;;;16.88;11.60;;;;;;;;;;5021954;28;20065;-74
2023/08/06 05:04:39;;;;;;;13.05;11.75;;;;;;;;;;5036348;28;20487;-73
2023/08/06 05:07:06;;;;;;;13.20;10.95;;;;;;;;;;5020841;28;20066;-74
2023/08/06 05:09:32;;;;;;;13.85;11.48;;;;;;;;;;5021973;28;20026;-75
2023/08/06 05:11:58;;;;;;;16.42;10.80;;;;;;;;;;5021597;28;20498;-74
2023/08/06 05:14:24;;;;;;;19.77;14.18;;;;;;;;;;5020243;28;20032;-74
2023/08/06 05:16:50;;;;;;;22.58;16.02;;;;;;;;;;5025088;28;20033;-82
2023/08/06 05:19:16;;;;;;;18.85;15.73;;;;;;;;;;5026947;28;20623;-73
2023/08/06 05:21:42;;;;;;;13.35;10.85;;;;;;;;;;5022971;28;20049;-74
2023/08/06 05:24:08;;;;;;;17.42;12.50;;;;;;;;;;5019674;28;20080;-74
2023/08/06 05:26:34;;;;;;;15.20;11.20;;;;;;;;;;5026848;28;20025;-72
2023/08/06 05:29:01;;;;;;;14.38;11.43;;;;;;;;;;5023546;28;20025;-72
2023/08/06 05:31:28;;;;;;;15.10;11.25;;;;;;;;;;5024170;28;20065;-72
2023/08/06 05:33:54;;;;;;;15.45;10.77;;;;;;;;;;5021732;28;20046;-75
2023/08/06 05:36:21;;;;;;;13.30;11.85;;;;;;;;;;5015663;28;20095;-73
2023/08/06 05:38:47;;;;;;;17.70;11.63;;;;;;;;;;5017363;28;20033;-78
2023/08/06 05:41:13;;;;;;;17.42;11.55;;;;;;;;;;5022342;28;20039;-74
2023/08/06 05:43:39;;;;;;;14.43;10.43;;;;;;;;;;5021578;28;20120;-74
2023/08/06 05:46:05;;;;;;;13.55;11.68;;;;;;;;;;5021777;28;20064;-75
2023/08/06 05:48:31;;;;;;;16.60;11.68;;;;;;;;;;5022563;28;20117;-74
2023/08/06 05:50:58;;;;;;;16.70;11.23;;;;;;;;;;5023568;28;20041;-73
2023/08/06 05:53:24;;;;;;;14.07;12.02;;;;;;;;;;5019899;28;20120;-74
2023/08/06 05:55:51;;;;;;;14.10;11.35;;;;;;;;;;5021940;28;20448;-73
2023/08/06 05:58:17;;;;;;;16.00;11.35;;;;;;;;;;5022392;28;20373;-74
2023/08/06 06:00:43;;;;;;;11.60;10.40;;;;;;;;;;5021560;28;20032;-73
2023/08/06 06:03:09;;;;;;;12.77;11.55;;;;;;;;;;5023737;28;20056;-75
2023/08/06 06:05:38;;;;;;;12.23;10.95;;;;;;;;;;5037247;28;20034;-75
2023/08/06 06:08:04;;;;;;;16.08;10.85;;;;;;;;;;5021735;28;20017;-75
2023/08/06 06:10:30;;;;;;;13.93;10.85;;;;;;;;;;5018299;28;20506;-76
2023/08/06 06:12:56;;;;;;;12.45;11.10;;;;;;;;;;5020772;28;20040;-72
2023/08/06 06:15:23;;;;;;;13.30;11.32;;;;;;;;;;5016889;28;20402;-73
2023/08/06 06:17:49;;;;;;;15.10;10.52;;;;;;;;;;5016661;28;20029;-72
2023/08/06 06:20:15;;;;;;;14.63;12.18;;;;;;;;;;5020898;28;20060;-73
2023/08/06 06:22:41;;;;;;;16.13;10.27;;;;;;;;;;5025839;28;20037;-72
2023/08/06 06:25:07;;;;;;;11.98;9.68;;;;;;;;;;5021331;28;20038;-73
2023/08/06 06:27:33;;;;;;;13.43;9.75;;;;;;;;;;5022463;28;20036;-73
2023/08/06 06:29:59;;;;;;;9.93;8.93;;;;;;;;;;5026768;28;20037;-71
2023/08/06 06:32:26;;;;;;;11.40;9.13;;;;;;;;;;5021427;28;20069;-71
2023/08/06 06:34:52;;;;;;;11.73;9.48;;;;;;;;;;5027352;28;20037;-72
2023/08/06 06:37:18;;;;;;;12.93;10.48;;;;;;;;;;5025732;28;20045;-73
2023/08/06 06:39:44;;;;;;;14.50;10.32;;;;;;;;;;5027594;28;20029;-72
2023/08/06 06:42:10;;;;;;;12.50;9.80;;;;;;;;;;5025464;28;20121;-72
2023/08/06 06:44:36;;;;;;;11.35;9.88;;;;;;;;;;5025221;28;20025;-74
2023/08/06 06:47:02;;;;;;;12.48;10.10;;;;;;;;;;5026529;28;20471;-71
2023/08/06 06:49:28;;;;;;;10.40;9.30;;;;;;;;;;5024891;28;20479;-74
2023/08/06 06:51:54;;;;;;;12.75;10.10;;;;;;;;;;5026465;28;20052;-73
2023/08/06 06:54:20;;;;;;;12.98;9.77;;;;;;;;;;5025371;28;20111;-74
2023/08/06 06:56:46;;;;;;;11.13;9.32;;;;;;;;;;5025540;28;20036;-71
2023/08/06 06:59:12;;;;;;;11.10;9.32;;;;;;;;;;5022348;28;20037;-72
2023/08/06 07:01:38;;;;;;;15.07;10.50;;;;;;;;;;5024907;28;20061;-73
2023/08/06 07:04:04;;;;;;;10.13;8.98;;;;;;;;;;5025700;28;20113;-73
2023/08/06 07:06:31;;;;;;;11.13;9.88;;;;;;;;;;5024628;28;20085;-73
2023/08/06 07:08:57;;;;;;;10.90;9.30;;;;;;;;;;5024690;28;20414;-73
2023/08/06 07:11:23;;;;;;;13.90;9.15;;;;;;;;;;5023120;28;20041;-74
2023/08/06 07:13:50;;;;;;;11.70;8.98;;;;;;;;;;5024212;28;20506;-72
2023/08/06 07:16:16;;;;;;;12.73;9.38;;;;;;;;;;5035927;28;20117;-73
2023/08/06 07:18:42;;;;;;;11.00;8.80;;;;;;;;;;5042472;28;20458;-72
2023/08/06 07:21:08;;;;;;;16.15;10.32;;;;;;;;;;5029877;28;20064;-73
2023/08/06 07:23:34;;;;;;;11.40;9.25;;;;;;;;;;5020666;28;20057;-72
2023/08/06 07:26:00;;;;;;;12.55;9.32;;;;;;;;;;5023061;28;20042;-73
2023/08/06 07:28:26;;;;;;;8.77;7.88;;;;;;;;;;5022080;28;20029;-73
2023/08/06 07:30:52;;;;;;;12.88;9.25;;;;;;;;;;5019363;28;20454;-73
2023/08/06 07:33:18;;;;;;;10.48;7.72;;;;;;;;;;5023292;28;20060;-72
2023/08/06 07:35:44;;;;;;;11.18;8.15;;;;;;;;;;5023567;28;20034;-72
2023/08/06 07:38:10;;;;;;;9.75;8.07;;;;;;;;;;5024487;28;20091;-71
2023/08/06 07:40:37;;;;;;;11.05;8.20;;;;;;;;;;5021759;28;20045;-71
2023/08/06 07:43:03;;;;;;;9.80;8.27;;;;;;;;;;5026668;28;20364;-71
2023/08/06 07:45:33;;;;;;;8.88;7.85;;;;;;;;;;5019115;28;20037;-72
2023/08/06 07:47:59;;;;;;;7.55;6.75;;;;;;;;;;5024455;28;20033;-72
2023/08/06 07:50:25;;;;;;;12.38;6.60;;;;;;;;;;5023667;28;20045;-72
2023/08/06 07:52:51;;;;;;;9.63;7.03;;;;;;;;;;5019391;28;20045;-73
2023/08/06 07:55:17;;;;;;;8.95;6.32;;;;;;;;;;5039374;28;20055;-72
2023/08/06 07:57:43;;;;;;;12.50;9.93;;;;;;;;;;5026412;28;20031;-70
2023/08/06 08:00:09;;;;;;;21.40;12.38;;;;;;;;;;5023045;28;20033;-71
2023/08/06 08:02:35;;;;;;;11.23;8.85;;;;;;;;;;5025859;28;20387;-72
2023/08/06 08:05:01;;;;;;;12.23;7.20;;;;;;;;;;5024944;28;20042;-73
2023/08/06 08:07:30;;;;;;;10.10;6.38;;;;;;;;;;5022700;28;20080;-73
2023/08/06 08:09:56;;;;;;;6.18;5.57;;;;;;;;;;5022222;28;20683;-74
2023/08/06 08:12:22;;;;;;;6.75;5.95;;;;;;;;;;5023671;28;20076;-71
2023/08/06 08:14:48;;;;;;;6.85;5.68;;;;;;;;;;5024535;28;20079;-71
2023/08/06 08:17:14;;;;;;;7.55;6.03;;;;;;;;;;5021022;28;20076;-71
2023/08/06 08:19:41;;;;;;;7.15;5.68;;;;;;;;;;5025130;28;20029;-72
2023/08/06 08:22:07;;;;;;;6.40;4.97;;;;;;;;;;5023627;28;20522;-77
2023/08/06 08:24:33;;;;;;;9.55;6.32;;;;;;;;;;5022553;28;20060;-73
2023/08/06 08:26:59;;;;;;;7.68;6.32;;;;;;;;;;5023626;28;20629;-75
2023/08/06 08:29:25;;;;;;;6.55;5.78;;;;;;;;;;5018339;28;20041;-76
2023/08/06 08:31:51;;;;;;;4.63;4.05;;;;;;;;;;5024172;28;20536;-72
2023/08/06 08:34:17;;;;;;;6.65;4.50;;;;;;;;;;5039060;28;20057;-73
2023/08/06 08:36:46;;;;;;;5.97;4.05;;;;;;;;;;5019891;28;20036;-72
2023/08/06 08:39:12;;;;;;;5.60;4.40;;;;;;;;;;5024024;28;20398;-72
2023/08/06 08:41:39;;;;;;;6.78;3.72;;;;;;;;;;5022723;28;20038;-72
2023/08/06 08:44:09;;;;;;;9.65;8.18;;;;;;;;;;5022584;28;20041;-75
2023/08/06 08:46:36;;;;;;;10.02;7.00;;;;;;;;;;5022787;28;20026;-76
2023/08/06 08:49:02;;;;;;;5.72;4.25;;;;;;;;;;5021239;28;20112;-79
2023/08/06 08:51:29;;;;;;;4.05;3.65;;;;;;;;;;5018512;28;20048;-79
2023/08/06 08:53:57;;;;;;;7.65;4.25;;;;;;;;;;5022004;28;20029;-69
2023/08/06 08:56:23;;;;;;;4.32;3.90;;;;;;;;;;5023414;28;20109;-70
2023/08/06 08:58:49;;;;;;;6.43;3.83;;;;;;;;;;5019618;28;20033;-71
2023/08/06 09:01:16;;;;;;;3.72;3.42;;;;;;;;;;5020444;28;20419;-73
2023/08/06 09:03:43;;;;;;;3.50;3.20;;;;;;;;;;5019652;28;20462;-72
2023/08/06 09:06:11;;;;;;;4.95;3.63;;;;;;;;;;5020271;28;20034;-71
2023/08/06 09:08:39;;;;;;;4.47;3.40;;;;;;;;;;5021006;28;20037;-70
2023/08/06 09:11:06;;;;;;;4.65;3.45;;;;;;;;;;5019919;28;20049;-73
2023/08/06 09:13:32;;;;;;;4.07;3.67;;;;;;;;;;5021934;28;20383;-70
2023/08/06 09:15:58;;;;;;;3.97;3.25;;;;;;;;;;5020070;28;20483;-71
2023/08/06 09:18:30;;;;;;;6.32;3.47;;;;;;;;;;5023283;28;20402;-71
2023/08/06 09:20:57;;;;;;;6.85;3.88;;;;;;;;;;4999941;28;21361;-70
2023/08/06 09:23:30;;;;;;;14.30;9.40;;;;;;;;;;5020424;28;20072;-70
2023/08/06 09:25:56;;;;;;;4.00;3.15;;;;;;;;;;5020461;28;20033;-70
2023/08/06 09:28:24;;;;;;;6.05;3.15;;;;;;;;;;5018447;28;20026;-71
2023/08/06 09:30:50;;;;;;;2.60;2.30;;;;;;;;;;5019939;28;20057;-71
2023/08/06 09:33:19;;;;;;;4.00;2.55;;;;;;;;;;5020405;28;20204;-71
2023/08/06 09:35:47;;;;;;;2.95;2.55;;;;;;;;;;5019227;28;20045;-72
2023/08/06 09:38:13;;;;;;;5.82;3.03;;;;;;;;;;5020636;28;20110;-70
2023/08/06 09:40:39;;;;;;;2.92;2.05;;;;;;;;;;5019745;28;20069;-70
2023/08/06 09:43:06;;;;;;;6.93;3.08;;;;;;;;;;5024065;28;20033;-70
2023/08/06 09:45:33;;;;;;;5.55;2.80;;;;;;;;;;5021896;28;20029;-72
2023/08/06 09:47:59;;;;;;;2.70;2.47;;;;;;;;;;5020882;28;20056;-70
2023/08/06 09:50:32;;;;;;;2.60;2.30;;;;;;;;;;5021431;28;20475;-70
2023/08/06 09:52:59;;;;;;;2.88;2.47;;;;;;;;;;5021319;28;20502;-72
2023/08/06 09:55:28;;;;;;;2.85;2.22;;;;;;;;;;5022065;28;20159;-70
2023/08/06 09:57:55;;;;;;;3.28;2.38;;;;;;;;;;5012688;28;20064;-72
2023/08/06 10:00:22;;;;;;;4.22;2.38;;;;;;;;;;5022566;28;20049;-72
2023/08/06 10:02:49;;;;;;;5.22;3.35;;;;;;;;;;5024353;28;20034;-81
2023/08/06 10:05:15;;;;;;;8.90;4.38;;;;;;;;;;5027600;28;20041;-80
2023/08/06 10:07:43;;;;;;;4.07;2.47;;;;;;;;;;5027149;28;20069;-74
2023/08/06 10:10:09;;;;;;;2.67;2.20;;;;;;;;;;5027113;28;20040;-72
2023/08/06 10:12:38;;;;;;;5.07;2.10;;;;;;;;;;5023608;28;20079;-71
2023/08/06 10:15:07;;;;;;;5.70;2.13;;;;;;;;;;5023011;28;20025;-71
2023/08/06 10:17:34;;;;;;;4.70;2.15;;;;;;;;;;5024025;28;20052;-69
2023/08/06 10:20:00;;;;;;;2.85;2.10;;;;;;;;;;5022480;28;21509;-68
2023/08/06 10:22:27;;;;;;;3.25;2.22;;;;;;;;;;5024778;28;20037;-70
2023/08/06 10:24:57;;;;;;;2.58;1.83;;;;;;;;;;5024931;28;20075;-70
2023/08/06 10:27:30;;;;;;;2.78;1.60;;;;;;;;;;5026458;28;20108;-70
2023/08/06 10:29:57;;;;;;;4.25;1.60;;;;;;;;;;5024084;28;20383;-69
2023/08/06 10:32:43;;;;;;;2.72;1.60;;;;;;;;;;5023554;28;20048;-72
2023/08/06 10:35:27;;;;;;;1.73;1.40;;;;;;;;;;5041863;28;20113;-70
2023/08/06 10:37:53;;;;;;;4.38;1.25;;;;;;;;;;5007942;28;20038;-71
2023/08/06 10:40:24;;;;;;;3.47;1.92;;;;;;;;;;5025335;28;20025;-70
2023/08/06 10:42:50;;;;;;;3.00;1.30;;;;;;;;;;5026786;28;20030;-70
2023/08/06 10:45:19;;;;;;;2.50;1.63;;;;;;;;;;5025664;28;20037;-70
2023/08/06 10:47:46;;;;;;;6.68;2.40;;;;;;;;;;5023081;28;20038;-71
2023/08/06 10:50:18;;;;;;;5.35;4.57;;;;;;;;;;5024014;28;20159;-72
2023/08/06 10:52:45;;;;;;;5.43;1.65;;;;;;;;;;5025307;28;20037;-72
2023/08/06 10:55:11;;;;;;;3.00;1.67;;;;;;;;;;5025271;28;20041;-73
2023/08/06 10:57:37;;;;;;;1.63;1.50;;;;;;;;;;5024511;28;20033;-72
2023/08/06 11:00:08;;;;;;;5.70;1.40;;;;;;;;;;5025766;28;20441;-69
2023/08/06 11:02:35;;;;;;;1.70;1.10;;;;;;;;;;5024579;28;20037;-70
2023/08/06 11:05:10;;;;;;;3.08;1.30;;;;;;;;;;5028778;28;20025;-69
2023/08/06 11:07:36;;;;;;;3.53;1.40;;;;;;;;;;5045365;28;20495;-70
2023/08/06 11:10:03;;;;;;;1.88;1.48;;;;;;;;;;5027830;28;20033;-70
2023/08/06 11:12:29;;;;;;;1.65;1.10;;;;;;;;;;5027435;28;20055;-70
2023/08/06 11:14:55;;;;;;;2.90;1.40;;;;;;;;;;5029433;28;20494;-72
2023/08/06 11:17:22;;;;;;;1.85;1.00;;;;;;;;;;5029420;28;20037;-71
2023/08/06 11:19:48;;;;;;;3.28;1.10;;;;;;;;;;5026936;28;20603;-70
2023/08/06 11:22:15;;;;;;;3.90;1.50;;;;;;;;;;5029911;28;20061;-70
2023/08/06 11:24:41;;;;;;;3.67;1.48;;;;;;;;;;5027085;28;20033;-70
2023/08/06 11:27:14;;;;;;;3.78;1.30;;;;;;;;;;5028251;28;20049;-72
2023/08/06 11:29:41;;;;;;;3.22;1.80;;;;;;;;;;5023317;28;20029;-70
2023/08/06 11:32:07;;;;;;;1.33;1.20;;;;;;;;;;5028104;28;20041;-70
2023/08/06 11:34:34;;;;;;;2.50;1.42;;;;;;;;;;5030207;28;20064;-70
2023/08/06 11:37:00;;;;;;;1.77;1.30;;;;;;;;;;5030167;28;20451;-69
2023/08/06 11:39:26;;;;;;;2.22;1.13;;;;;;;;;;5025831;28;20116;-70
2023/08/06 11:41:52;;;;;;;4.85;2.13;;;;;;;;;;5029733;28;20057;-70
2023/08/06 11:44:24;;;;;;;2.60;1.58;;;;;;;;;;5027335;28;20116;-70
2023/08/06 11:46:55;;;;;;;2.17;1.42;;;;;;;;;;5027635;28;20021;-71
2023/08/06 11:49:37;;;;;;;2.80;1.83;;;;;;;;;;5029673;28;20052;-70
2023/08/06 11:52:23;;;;;;;3.15;1.58;;;;;;;;;;5024062;28;20507;-70
2023/08/06 11:55:11;;;;;;;3.90;1.95;;;;;;;;;;5027744;28;20053;-70
2023/08/06 11:57:39;;;;;;;3.38;1.90;;;;;;;;;;5023455;28;20387;-70
2023/08/06 12:00:10;;;;;;;3.65;1.85;;;;;;;;;;5028959;28;20063;-70
2023/08/06 12:02:39;;;;;;;3.60;1.83;;;;;;;;;;5026106;28;20495;-71
2023/08/06 12:05:10;;;;;;;3.70;1.90;;;;;;;;;;5021521;28;20060;-71
2023/08/06 12:07:42;;;;;;;3.17;1.70;;;;;;;;;;5027052;28;20040;-71
2023/08/06 12:10:08;;;;;;;4.40;1.92;;;;;;;;;;5019667;28;20479;-70
2023/08/06 12:12:35;;;;;;;2.55;1.45;;;;;;;;;;5026240;28;20116;-71
2023/08/06 12:15:01;;;;;;;2.42;2.03;;;;;;;;;;5028021;28;20511;-71
2023/08/06 12:17:27;;;;;;;3.05;1.92;;;;;;;;;;5027766;28;20029;-70
2023/08/06 12:19:53;;;;;;;2.17;1.45;;;;;;;;;;5022937;28;20041;-70
2023/08/06 12:22:19;;;;;;;6.07;1.75;;;;;;;;;;5027344;28;20048;-70
2023/08/06 12:24:46;;;;;;;1.77;1.40;;;;;;;;;;5026991;28;20041;-70
2023/08/06 12:27:12;;;;;;;2.38;1.58;;;;;;;;;;5025104;28;20033;-72
2023/08/06 12:29:43;;;;;;;2.08;1.27;;;;;;;;;;5027821;28;20394;-72
2023/08/06 12:32:09;;;;;;;3.25;1.67;;;;;;;;;;5023719;28;20038;-71
2023/08/06 12:34:35;;;;;;;2.67;1.30;;;;;;;;;;5024060;28;20022;-72
2023/08/06 12:37:02;;;;;;;5.65;1.35;;;;;;;;;;5028091;28;20059;-72
2023/08/06 12:39:28;;;;;;;2.80;1.73;;;;;;;;;;5028851;28;20112;-71
2023/08/06 12:41:55;;;;;;;5.45;1.60;;;;;;;;;;5026102;28;20044;-72
2023/08/06 12:44:21;;;;;;;4.38;1.15;;;;;;;;;;5025929;28;20025;-72
2023/08/06 12:46:47;;;;;;;3.28;2.40;;;;;;;;;;5021746;28;20053;-70
2023/08/06 12:49:13;;;;;;;4.38;3.00;;;;;;;;;;5028425;28;20050;-70
2023/08/06 12:51:39;;;;;;;2.95;1.83;;;;;;;;;;5026734;28;20111;-71
2023/08/06 12:54:05;;;;;;;2.17;1.58;;;;;;;;;;5028692;28;20073;-70
2023/08/06 12:56:31;;;;;;;2.15;1.60;;;;;;;;;;5024460;28;20565;-72
2023/08/06 12:58:57;;;;;;;4.70;1.48;;;;;;;;;;5027830;28;20596;-71
2023/08/06 13:01:23;;;;;;;5.97;1.52;;;;;;;;;;5023680;28;20030;-71
2023/08/06 13:03:49;;;;;;;3.03;1.38;;;;;;;;;;5025319;28;20041;-72
2023/08/06 13:06:15;;;;;;;2.45;1.52;;;;;;;;;;5022694;28;20045;-71
2023/08/06 13:08:41;;;;;;;1.67;1.55;;;;;;;;;;5022018;28;20088;-72
2023/08/06 13:11:07;;;;;;;4.10;1.50;;;;;;;;;;5039483;28;20040;-74
2023/08/06 13:13:33;;;;;;;3.17;1.40;;;;;;;;;;5025098;28;20037;-72
2023/08/06 13:15:59;;;;;;;3.60;1.92;;;;;;;;;;5023660;28;20051;-72
2023/08/06 13:18:27;;;;;;;1.58;1.48;;;;;;;;;;5028688;28;20037;-72
2023/08/06 13:20:54;;;;;;;3.28;1.60;;;;;;;;;;5024798;28;20022;-73
2023/08/06 13:23:20;;;;;;;5.05;2.92;;;;;;;;;;5025601;28;20529;-70
2023/08/06 13:25:46;;;;;;;4.43;2.85;;;;;;;;;;5026187;28;20037;-70
2023/08/06 13:28:13;;;;;;;4.60;1.80;;;;;;;;;;5025280;28;20029;-72
2023/08/06 13:30:41;;;;;;;2.78;1.70;;;;;;;;;;5022436;28;20037;-73
2023/08/06 13:33:11;;;;;;;3.53;1.88;;;;;;;;;;5021432;28;20057;-72
2023/08/06 13:35:37;;;;;;;4.20;2.08;;;;;;;;;;5034095;28;20040;-73
2023/08/06 13:38:03;;;;;;;1.67;1.50;;;;;;;;;;5027925;28;20406;-71
2023/08/06 13:40:30;;;;;;;2.65;1.52;;;;;;;;;;5023373;28;20041;-73
2023/08/06 13:42:56;;;;;;;4.63;1.40;;;;;;;;;;5021625;28;20052;-72
2023/08/06 13:45:22;;;;;;;3.17;2.13;;;;;;;;;;5028113;28;20029;-72
2023/08/06 13:47:48;;;;;;;2.63;1.55;;;;;;;;;;5042524;28;20038;-72
2023/08/06 13:50:14;;;;;;;2.30;1.70;;;;;;;;;;5027699;28;20065;-72
2023/08/06 13:52:40;;;;;;;3.88;1.48;;;;;;;;;;5028670;28;20461;-73
2023/08/06 13:55:06;;;;;;;1.88;1.45;;;;;;;;;;5027101;28;20120;-73
2023/08/06 13:57:33;;;;;;;2.05;1.50;;;;;;;;;;5028117;28;20037;-72
2023/08/06 13:59:59;;;;;;;2.92;1.67;;;;;;;;;;5041236;28;20553;-73
2023/08/06 14:02:25;;;;;;;2.03;1.45;;;;;;;;;;5025608;28;20045;-72
2023/08/06 14:04:52;;;;;;;2.25;1.52;;;;;;;;;;5024794;28;20037;-72
2023/08/06 14:07:18;;;;;;;3.45;2.00;;;;;;;;;;5026769;28;20049;-72
2023/08/06 14:09:44;;;;;;;6.50;1.83;;;;;;;;;;5035787;28;20395;-72
2023/08/06 14:12:10;;;;;;;3.03;2.13;;;;;;;;;;5028430;28;20402;-72
2023/08/06 14:14:37;;;;;;;2.45;2.17;;;;;;;;;;5027549;28;20048;-72
2023/08/06 14:17:03;;;;;;;6.90;4.55;;;;;;;;;;5022779;28;20033;-72
2023/08/06 14:19:29;;;;;;;4.32;2.15;;;;;;;;;;5023864;28;20497;-72
2023/08/06 14:21:55;;;;;;;3.75;1.88;;;;;;;;;;5024841;28;20475;-71
2023/08/06 14:24:22;;;;;;;1.63;1.33;;;;;;;;;;5027990;28;20064;-72
2023/08/06 14:26:48;;;;;;;3.20;1.50;;;;;;;;;;5026097;28;20586;-72
2023/08/06 14:29:14;;;;;;;2.65;1.42;;;;;;;;;;5022990;28;20045;-72
2023/08/06 14:31:41;;;;;;;1.90;1.60;;;;;;;;;;5019832;28;20046;-72